NCAR-RAP Real-Time Weather Data

Output produced by METARs form (12 August 2020  18:50 UTC)
found at http://weather.rap.ucar.edu/surface/
 
KEWR 121847Z 16009KT 8SM TS SCT040CB BKN049 29/23 A2999 RMK AO2 LTG DSNT E AND SW TSE42B45 OCNL LTGICCG VC W TS VC W MOV E VCSH
KEWR 121751Z VRB03KT 10SM SCT043TCU SCT090 BKN250 32/22 A2999 RMK AO2 LTG DSNT E SLP155 TCU OHD AND NE T03170222 10328 20267 58010
KEWR 121651Z VRB04KT 10SM SCT040TCU 32/22 A3000 RMK AO2 SLP158 TCU NE AND SW AND W T03170217
KEWR 121551Z 00000KT 10SM FEW032TCU SCT090 SCT250 31/22 A3001 RMK AO2 SLP163 TCU E AND SW T03110217
KEWR 121451Z VRB04KT 10SM FEW025 SCT090 BKN250 31/23 A3002 RMK AO2 SLP165 ACC OHD T03060233 53006
KEWR 121437Z 02004KT 10SM SCT025TCU SCT090 BKN250 31/23 A3002 RMK AO2 TCU NE ACC OHD T03060233
KEWR 121351Z 00000KT 10SM BKN020 BKN040 BKN140 29/24 A3001 RMK AO2 SLP162 T02940239
KEWR 121251Z 35004KT 10SM BKN015 BKN050 BKN140 28/24 A3001 RMK AO2 SLP162 T02780239 $
KEWR 121247Z 00000KT 10SM BKN015 BKN050 BKN140 27/24 A3001 RMK AO2 $
KEWR 121151Z 28004KT 10SM FEW015 FEW050 SCT090 SCT150 27/23 A3000 RMK AO2 SLP159 60000 70004 T02670233 10267 20250 53009 $
KEWR 121051Z 23005KT 10SM FEW015 SCT090 BKN180 26/24 A2999 RMK AO2 SLP154 T02610239 $
KEWR 120951Z 22005KT 10SM FEW010 FEW025 SCT045 BKN200 26/24 A2998 RMK AO2 RAB03E18 SLP153 CB DSNT E-DSNT SE AND DSNT SW MOV SE P0000 T02560239 $
KEWR 120918Z 20005KT 10SM FEW009 SCT025 SCT045 BKN220 25/24 A2997 RMK AO2 LTG DSNT E AND SW RAB03E18 P0000 T02500239 $
KEWR 120907Z 21003KT 10SM -RA SCT009 BKN024 BKN060 25/24 A2997 RMK AO2 LTG DSNT E AND SW AND W RAB03 OCNL LTGIC DSNT SW CB DSNT SW MOV E P0000 T02500239 $
KEWR 120851Z 22004KT 10SM BKN009 BKN022 OVC070 26/24 A2998 RMK AO2 SLP150 T02560239 53004 $
KEWR 120815Z 27006KT 10SM OVC009 26/24 A2998 RMK AO2 T02560239 $
KEWR 120751Z 28005KT 10SM OVC010 26/24 A2998 RMK AO2 SLP151 T02610239 $
KEWR 120651Z 21007KT 10SM BKN011 BKN250 26/24 A2996 RMK AO2 SLP144 T02560239 $
KEWR 120551Z 20009KT 10SM BKN012 BKN250 26/24 A2996 RMK AO2 SLP146 T02560239 10289 20256 51006 $
KEWR 120542Z 20009KT 10SM BKN012 BKN250 26/24 A2996 RMK AO2 T02560239 $
KEWR 120451Z 20009KT 10SM FEW012 SCT250 26/23 A2996 RMK AO2 SLP144 T02610233 403110239 $
KEWR 120351Z 19009KT 10SM FEW015 SCT250 26/23 A2995 RMK AO2 SLP143 T02610233 $
KEWR 120251Z 19008KT 10SM FEW030 SCT250 27/23 A2994 RMK AO2 SLP139 T02670228 51012 $
KEWR 120151Z 18006KT 10SM FEW030 SCT250 28/23 A2994 RMK AO2 SLP138 T02780233 $
KEWR 120051Z 18008KT 10SM FEW035 SCT250 28/23 A2992 RMK AO2 SLP132 T02830233 $
KEWR 112351Z 15007KT 10SM FEW045 FEW100 SCT250 29/23 A2991 RMK AO2 SLP127 60004 T02890233 10306 20261 56001 $
KEWR 112251Z 16008KT 10SM FEW045 FEW120 SCT250 29/23 A2991 RMK AO2 SLP127 T02940228 $
KEWR 112151Z 16008G17KT 10SM FEW045 FEW120 FEW250 30/22 A2991 RMK AO2 SLP128 T03000222 $
KEWR 112051Z 16008KT 10SM FEW040 FEW100 SCT250 30/22 A2991 RMK AO2 RAE01 TSE17 SLP129 P0000 60004 T03000217 58008 $
KEWR 112022Z 17007KT 10SM FEW032 SCT070 SCT130 BKN250 29/22 A2993 RMK AO2 RAE01 TSE17 CB DSNT NE MOV NE P0000 T02890217 $
KEWR 112009Z 16006KT 9SM TS FEW010 SCT035CB BKN070 BKN130 29/23 A2994 RMK AO2 RAE01 FRQ LTGICCG VC NE TS VC NE MOV NE VCSH P0000 T02890228 $
KEWR 111957Z 24004KT 3SM +TSRA FEW010 SCT035CB BKN050 BKN130 27/22 A2995 RMK AO2 FRQ LTGICCG OHD TS OHD MOV NE P0000 T02720222 $
KEWR 111951Z 19005KT 3SM TSRA FEW010 SCT038CB BKN050 BKN130 27/21 A2996 RMK AO2 PK WND 16028/1934 WSHFT 1926 RAB34 TSB46 SLP144 FRQ LTGICCG VC SE TS VC SE MOV NE P0004 T02670211 $
KEWR 111946Z 20008G22KT 4SM R04R/5000VP6000FT -TSRA FEW010 SCT038CB BKN065 BKN130 BKN250 27/21 A2996 RMK AO2 PK WND 16028/1934 WSHFT 1926 RAB34 TSB46 PRESRR CB OHD AND SE MOV NE P0003 $
KEWR 111851Z 06009KT 10SM SCT036TCU SCT080 SCT250 29/23 A2994 RMK AO2 LTG DSNT S RAB08E46 SLP137 CB DSNT S MOV NE TCU OHD P0000 T02890228 $
KEWR 111751Z 14007KT 10SM SCT038TCU BKN070 31/22 A2995 RMK AO2 SLP141 CB DSNT SW MOV NE TCU OHD AND W T03060217 10311 20256 57013
KEWR 111651Z 16007G14KT 10SM SCT035 BKN250 31/23 A2996 RMK AO2 SLP146 T03060228
KEWR 111551Z 12006KT 10SM SCT033 BKN250 31/22 A2997 RMK AO2 SLP150 T03060222
KEWR 111451Z 00000KT 9SM SCT022 BKN250 30/23 A2999 RMK AO2 SLP154 T03000233 50004
KEWR 111351Z 22005KT 9SM SCT016 BKN250 28/23 A2999 RMK AO2 SLP155 T02830233
KEWR 111320Z 28004KT 9SM SCT012 BKN250 28/24 A2998 RMK AO2 T02780239
KEWR 111251Z 00000KT 8SM BKN010 BKN250 27/24 A2998 RMK AO2 SLP153 CIG 009V013 T02670239
KEWR 111151Z 23007KT 8SM BKN008 OVC250 26/24 A2998 RMK AO2 SLP150 T02560239 10261 20239 51009
KEWR 111142Z 21006KT 7SM BKN008 26/24 A2997 RMK AO2 T02560239
KEWR 111051Z 23005KT 9SM FEW008 BKN250 25/24 A2997 RMK AO2 SLP149 T02500239
KEWR 110951Z 23004KT 10SM FEW008 SCT250 24/23 A2996 RMK AO2 SLP145 T02440233
KEWR 110851Z 22007KT 10SM FEW020 SCT250 25/23 A2995 RMK AO2 SLP141 T02500233 56005
KEWR 110751Z 22008KT 10SM FEW030 SCT250 25/23 A2995 RMK AO2 SLP142 T02500233
KEWR 110651Z 24009KT 10SM SCT250 26/23 A2996 RMK AO2 SLP143 T02610228
KEWR 110551Z 23009KT 10SM SCT250 26/23 A2996 RMK AO2 SLP146 T02610228 10322 20261 58002
KEWR 110451Z 22007KT 10SM SCT250 27/22 A2997 RMK AO2 SLP147 T02670222 403440228
KEWR 110351Z 22012KT 10SM FEW250 28/22 A2997 RMK AO2 SLP148 T02780222
KEWR 110251Z 21009KT 10SM FEW250 28/23 A2997 RMK AO2 SLP148 T02780228 51009
KEWR 110151Z 19009KT 10SM FEW250 28/23 A2996 RMK AO2 SLP145 T02830233
KEWR 110051Z VRB03KT 10SM FEW060 SCT250 30/22 A2995 RMK AO2 SLP142 T03000222
KEWR 102351Z 27007KT 10SM FEW060 32/19 A2994 RMK AO2 SLP138 T03220194 10344 20322 55003
KEWR 102251Z 24009KT 10SM FEW060 33/19 A2994 RMK AO2 SLP137 T03280189
KEWR 102151Z 28011KT 10SM FEW060 34/19 A2994 RMK AO2 SLP138 T03390189
KEWR 102054Z 22008KT 10SM FEW060 33/19 A2995 RMK AO2 T03330189
KEWR 102051Z 24007KT 200V270 10SM FEW060 33/19 A2995 RMK AO2 SLP141 T03330189 58016
KEWR 101951Z 20008G18KT 10SM FEW065 33/19 A2997 RMK AO2 SLP147 T03330194
KEWR 101851Z 25008KT 10SM FEW060 34/18 A2998 RMK AO2 SLP152 T03390183